Time;durP1;ratioP1;P1;durP2;ratioP2;P2;SDS_P1;SDS_P2;PMS_P1;PMS_P2;Temp;Humidity;BMP_temperature;BMP_pressure;BME280_temperature;BME280_humidity;BME280_pressure;Samples;Min_cycle;Max_cycle;Signal;HPM_P1;HPM_P2
2022/03/06 00:02:20;;;;;;;10.88;4.10;;;;;;;2.26;100.00;102369.34;4824546;29;20367;-79
2022/03/06 00:04:45;;;;;;;7.22;3.50;;;;;;;2.23;100.00;102368.72;4826844;29;20080;-79
2022/03/06 00:07:10;;;;;;;15.25;4.38;;;;;;;2.19;100.00;102370.75;4828975;29;20476;-79
2022/03/06 00:09:36;;;;;;;14.23;4.47;;;;;;;2.16;100.00;102368.28;4830464;29;20130;-79
2022/03/06 00:12:02;;;;;;;15.40;4.85;;;;;;;2.10;100.00;102358.94;4830053;29;20038;-79
2022/03/06 00:14:27;;;;;;;14.10;4.38;;;;;;;2.19;100.00;102372.56;4828655;29;20662;-79
2022/03/06 00:16:53;;;;;;;14.55;4.65;;;;;;;2.16;100.00;102363.00;4827182;29;20034;-79
2022/03/06 00:19:19;;;;;;;13.82;4.15;;;;;;;2.16;100.00;102368.28;4828063;29;20038;-79
2022/03/06 00:21:45;;;;;;;12.73;4.85;;;;;;;2.14;100.00;102353.41;4828236;29;20499;-79
2022/03/06 00:24:10;;;;;;;18.85;4.95;;;;;;;2.13;100.00;102354.38;4827471;29;20199;-79
2022/03/06 00:26:36;;;;;;;13.25;4.45;;;;;;;2.02;100.00;102341.81;4828837;29;20517;-79
2022/03/06 00:29:02;;;;;;;17.85;5.07;;;;;;;2.08;100.00;102354.69;4833866;29;20094;-79
2022/03/06 00:31:27;;;;;;;13.52;4.85;;;;;;;2.13;100.00;102351.72;4831278;29;20040;-79
2022/03/06 00:33:53;;;;;;;14.82;4.93;;;;;;;2.16;100.00;102351.53;4826431;29;20034;-79
2022/03/06 00:36:19;;;;;;;18.85;4.95;;;;;;;2.07;100.00;102327.28;4828025;29;20366;-79
2022/03/06 00:38:45;;;;;;;12.55;5.07;;;;;;;2.18;100.00;102344.28;4827804;29;20046;-79
2022/03/06 00:41:12;;;;;;;16.17;4.55;;;;;;;2.21;100.00;102339.59;4827298;29;20090;-79
2022/03/06 00:43:37;;;;;;;17.25;4.57;;;;;;;2.24;100.00;102344.69;4827281;29;20500;-79
2022/03/06 00:46:03;;;;;;;14.90;5.07;;;;;;;2.14;100.00;102330.38;4826741;29;20042;-79
2022/03/06 00:48:28;;;;;;;15.60;4.57;;;;;;;2.28;100.00;102343.53;4826434;29;20523;-79
2022/03/06 00:50:54;;;;;;;14.15;4.60;;;;;;;2.08;100.00;102304.22;4825954;29;20410;-79
2022/03/06 00:53:19;;;;;;;18.23;5.28;;;;;;;2.29;100.00;102341.75;4826243;29;20034;-79
2022/03/06 00:55:45;;;;;;;15.95;4.80;;;;;;;2.32;100.00;102344.19;4827197;29;20034;-78
2022/03/06 00:58:10;;;;;;;14.13;5.18;;;;;;;2.39;100.00;102337.47;4826598;29;20044;-79
2022/03/06 01:00:41;;;;;;;18.95;4.80;;;;;;;2.41;100.00;102345.31;4827757;29;20031;-79
2022/03/06 01:03:09;;;;;;;19.77;5.20;;;;;;;2.29;100.00;102324.00;4826741;29;20037;-79
2022/03/06 01:05:35;;;;;;;17.50;5.18;;;;;;;2.43;100.00;102349.59;4826749;29;20042;-79
2022/03/06 01:08:02;;;;;;;17.42;5.22;;;;;;;2.46;100.00;102344.06;4827800;29;20046;-79
2022/03/06 01:10:27;;;;;;;15.32;5.38;;;;;;;2.49;100.00;102350.97;4826753;29;20037;-79
2022/03/06 01:12:53;;;;;;;15.40;4.90;;;;;;;2.49;100.00;102343.00;4827341;29;20039;-79
2022/03/06 01:15:19;;;;;;;15.18;5.78;;;;;;;2.39;100.00;102323.34;4826380;29;20033;-79
2022/03/06 01:17:44;;;;;;;13.10;5.32;;;;;;;2.50;100.00;102332.25;4825780;29;20041;-79
2022/03/06 01:20:11;;;;;;;14.90;5.30;;;;;;;2.51;100.00;102338.41;4826684;29;20031;-79
2022/03/06 01:22:36;;;;;;;18.45;5.25;;;;;;;2.52;100.00;102332.16;4829753;29;20385;-79
2022/03/06 01:25:02;;;;;;;14.30;5.57;;;;;;;2.51;100.00;102336.59;4828910;29;20034;-79
2022/03/06 01:27:27;;;;;;;19.25;5.28;;;;;;;2.52;100.00;102337.47;4826264;29;20362;-79
2022/03/06 01:29:52;;;;;;;18.73;5.03;;;;;;;2.44;100.00;102318.53;4827774;29;20038;-79
2022/03/06 01:32:18;;;;;;;19.00;5.00;;;;;;;2.52;100.00;102326.84;4825534;29;20417;-79
2022/03/06 01:34:43;;;;;;;18.17;5.65;;;;;;;2.49;100.00;102335.03;4827598;29;20042;-79
2022/03/06 01:37:10;;;;;;;19.50;5.22;;;;;;;2.50;100.00;102328.75;4827663;29;20038;-79
2022/03/06 01:39:35;;;;;;;17.50;5.65;;;;;;;2.47;100.00;102335.13;4833563;29;20031;-79
2022/03/06 01:42:02;;;;;;;20.17;5.55;;;;;;;2.41;100.00;102316.09;4829276;29;20094;-79
2022/03/06 01:44:28;;;;;;;17.20;5.35;;;;;;;2.49;100.00;102327.06;4828815;29;20034;-79
2022/03/06 01:46:53;;;;;;;18.58;4.78;;;;;;;2.49;100.00;102325.25;4825910;29;20031;-79
2022/03/06 01:49:19;;;;;;;16.70;5.20;;;;;;;2.42;100.00;102318.66;4826194;29;20125;-79
2022/03/06 01:51:45;;;;;;;17.85;5.90;;;;;;;2.30;100.00;102298.28;4826107;29;20063;-79
2022/03/06 01:54:10;;;;;;;16.15;5.10;;;;;;;2.42;100.00;102318.66;4826730;29;20110;-79
2022/03/06 01:56:36;;;;;;;19.83;5.75;;;;;;;2.42;100.00;102328.41;4825835;29;20042;-79
2022/03/06 01:59:03;;;;;;;22.77;6.05;;;;;;;2.39;100.00;102328.66;4825420;29;20041;-79
2022/03/06 02:01:30;;;;;;;17.45;5.80;;;;;;;2.35;100.00;102323.56;4826790;29;20038;-79
2022/03/06 02:03:55;;;;;;;21.98;5.28;;;;;;;2.33;100.00;102322.81;4825591;29;20061;-79
2022/03/06 02:06:25;;;;;;;21.08;5.75;;;;;;;2.24;100.00;102307.53;4824365;29;20466;-79
2022/03/06 02:08:50;;;;;;;24.42;5.70;;;;;;;2.14;100.00;102301.16;4826176;29;20034;-79
2022/03/06 02:11:16;;;;;;;23.25;6.15;;;;;;;2.19;100.00;102309.66;4825486;29;20031;-79
2022/03/06 02:13:44;;;;;;;21.60;5.82;;;;;;;2.16;100.00;102309.88;4826376;29;20043;-79
2022/03/06 02:16:11;;;;;;;22.35;5.78;;;;;;;2.13;100.00;102306.59;4825387;29;20372;-79
2022/03/06 02:18:37;;;;;;;18.58;6.35;;;;;;;2.09;100.00;102317.41;4825025;29;20076;-79
2022/03/06 02:21:10;;;;;;;29.38;6.18;;;;;;;2.04;100.00;102311.56;4825842;29;20119;-79
2022/03/06 02:23:37;;;;;;;18.92;6.25;;;;;;;2.03;100.00;102301.91;4823998;29;20042;-79
2022/03/06 02:26:03;;;;;;;23.98;5.88;;;;;;;2.01;100.00;102302.97;4824768;29;20042;-79
2022/03/06 02:28:29;;;;;;;22.02;6.25;;;;;;;1.98;100.00;102303.19;4826338;29;20044;-79
2022/03/06 02:30:55;;;;;;;21.65;6.40;;;;;;;1.85;100.00;102285.47;4825880;29;20459;-79
2022/03/06 02:33:21;;;;;;;27.00;6.45;;;;;;;1.93;100.00;102298.19;4826056;29;20383;-78
2022/03/06 02:35:46;;;;;;;20.00;6.70;;;;;;;1.93;100.00;102292.88;4832857;29;20046;-79
2022/03/06 02:38:12;;;;;;;23.58;6.30;;;;;;;1.97;100.00;102288.22;4826257;29;20069;-78
2022/03/06 02:40:41;;;;;;;23.48;5.95;;;;;;;1.95;100.00;102298.91;4825435;29;20042;-78
2022/03/06 02:43:08;;;;;;;23.45;5.90;;;;;;;1.95;100.00;102292.78;4826610;29;20351;-79
2022/03/06 02:45:35;;;;;;;22.30;5.57;;;;;;;1.94;100.00;102293.72;4825240;29;20510;-78
2022/03/06 02:48:02;;;;;;;24.95;5.22;;;;;;;1.94;100.00;102310.50;4832298;29;20044;-79
2022/03/06 02:50:32;;;;;;;26.63;5.13;;;;;;;2.04;100.00;102306.25;4825060;29;20048;-79
2022/03/06 02:52:59;;;;;;;31.10;4.53;;;;;;;2.08;100.00;102293.63;4824957;29;20049;-79
2022/03/06 02:55:25;;;;;;;18.85;4.70;;;;;;;2.16;100.00;102303.72;4833463;29;20376;-79
2022/03/06 02:57:51;;;;;;;25.60;4.68;;;;;;;2.12;100.00;102305.75;4827660;29;20065;-79
2022/03/06 03:00:21;;;;;;;18.92;4.03;;;;;;;2.09;100.00;102295.34;4825599;29;20441;-78
2022/03/06 03:02:48;;;;;;;24.73;3.90;;;;;;;1.95;100.00;102288.31;4825690;29;20049;-78
2022/03/06 03:05:15;;;;;;;23.85;4.82;;;;;;;2.02;100.00;102302.00;4823569;29;20405;-79
2022/03/06 03:07:41;;;;;;;15.63;4.65;;;;;;;1.86;100.00;102303.09;4825400;29;20427;-78
2022/03/06 03:10:09;;;;;;;24.35;4.40;;;;;;;1.78;100.00;102302.75;4824784;29;20037;-79
2022/03/06 03:12:35;;;;;;;21.83;4.05;;;;;;;1.68;100.00;102298.19;4825168;29;20080;-78
2022/03/06 03:15:00;;;;;;;18.60;3.67;;;;;;;1.72;100.00;102305.81;4826669;29;20056;-78
2022/03/06 03:17:25;;;;;;;18.75;3.83;;;;;;;1.63;100.00;102306.47;4826291;29;20082;-78
2022/03/06 03:19:51;;;;;;;17.83;3.65;;;;;;;1.56;100.00;102321.94;4825986;29;20070;-78
2022/03/06 03:22:16;;;;;;;14.45;3.60;;;;;;;1.39;100.00;102309.81;4826546;29;20058;-79
2022/03/06 03:24:42;;;;;;;22.02;4.07;;;;;;;0.89;100.00;102258.34;4808624;29;20031;-78
2022/03/06 03:27:07;;;;;;;15.90;3.45;;;;;;;1.07;100.00;102303.13;4825753;29;20046;-79
2022/03/06 03:29:33;;;;;;;15.45;2.55;;;;;;;1.06;100.00;102322.63;4827783;29;20113;-79
2022/03/06 03:31:58;;;;;;;17.35;2.60;;;;;;;1.07;100.00;102325.19;4825740;29;20038;-78
2022/03/06 03:34:23;;;;;;;12.05;2.83;;;;;;;1.08;100.00;102323.38;4826037;29;20037;-78
2022/03/06 03:36:49;;;;;;;16.67;2.65;;;;;;;1.01;100.00;102320.28;4825136;29;20034;-78
2022/03/06 03:39:14;;;;;;;16.73;3.33;;;;;;;1.05;100.00;102331.53;4824490;29;20030;-79
2022/03/06 03:41:40;;;;;;;17.13;2.90;;;;;;;1.01;100.00;102332.69;4826801;29;20044;-78
2022/03/06 03:44:05;;;;;;;17.52;2.92;;;;;;;0.98;100.00;102335.53;4828842;29;20034;-79
2022/03/06 03:46:31;;;;;;;18.42;2.90;;;;;;;0.99;100.00;102331.94;4830105;29;20049;-79
2022/03/06 03:48:56;;;;;;;19.73;2.88;;;;;;;1.00;100.00;102328.34;4831494;29;20049;-78
2022/03/06 03:51:21;;;;;;;19.08;2.88;;;;;;;0.97;100.00;102331.19;4828351;29;20449;-79
2022/03/06 03:53:47;;;;;;;22.60;3.25;;;;;;;0.97;100.00;102332.03;4829269;29;20117;-79
2022/03/06 03:56:12;;;;;;;13.85;2.83;;;;;;;0.97;100.00;102333.84;4834361;29;20059;-78
2022/03/06 03:58:38;;;;;;;18.48;3.38;;;;;;;0.97;100.00;102334.69;4826874;29;20038;-79
2022/03/06 04:01:03;;;;;;;16.38;3.00;;;;;;;0.90;100.00;102334.22;4828614;29;20035;-78
2022/03/06 04:03:29;;;;;;;19.33;3.33;;;;;;;0.86;100.00;102337.16;4827656;29;20489;-79
2022/03/06 04:05:54;;;;;;;22.58;3.40;;;;;;;0.84;100.00;102334.63;4828714;29;20034;-79
2022/03/06 04:08:20;;;;;;;23.60;4.68;;;;;;;0.88;100.00;102335.28;4831856;29;20046;-79
2022/03/06 04:10:46;;;;;;;25.50;3.80;;;;;;;0.83;100.00;102340.00;4829544;29;20464;-79
2022/03/06 04:13:12;;;;;;;23.25;3.30;;;;;;;0.70;100.00;102337.31;4827851;29;20053;-79
2022/03/06 04:15:37;;;;;;;18.33;3.78;;;;;;;0.59;100.00;102345.91;4827705;29;20038;-79
2022/03/06 04:18:03;;;;;;;19.75;3.20;;;;;;;0.45;100.00;102325.59;4827407;29;20121;-79
2022/03/06 04:20:29;;;;;;;17.90;3.47;;;;;;;0.35;100.00;102329.75;4826496;29;20046;-79
2022/03/06 04:22:56;;;;;;;21.38;3.13;;;;;;;0.34;100.00;102341.31;4827765;29;20066;-79
2022/03/06 04:25:22;;;;;;;28.38;4.13;;;;;;;0.24;100.00;102342.81;4827609;29;20781;-78
2022/03/06 04:27:47;;;;;;;14.20;3.30;;;;;;;0.17;100.00;102339.72;4826857;29;20042;-78
2022/03/06 04:30:13;;;;;;;13.13;2.63;;;;;;;0.14;100.00;102350.47;4827352;29;20468;-79
2022/03/06 04:32:38;;;;;;;13.15;2.40;;;;;;;0.03;100.00;102354.69;4827898;29;20038;-78
2022/03/06 04:35:05;;;;;;;23.23;3.03;;;;;;;-0.13;100.00;102345.06;4825824;29;20045;-78
2022/03/06 04:37:31;;;;;;;21.52;3.47;;;;;;;-0.09;100.00;102358.97;4828259;29;20546;-78
2022/03/06 04:39:56;;;;;;;12.70;2.75;;;;;;;-0.18;100.00;102340.97;4827959;29;20058;-79
2022/03/06 04:42:22;;;;;;;15.40;3.30;;;;;;;-0.12;100.00;102354.69;4826873;29;20038;-78
2022/03/06 04:44:47;;;;;;;17.80;3.80;;;;;;;-0.12;100.00;102359.97;4824075;29;20041;-79
2022/03/06 04:47:13;;;;;;;22.08;3.92;;;;;;;-0.18;100.00;102348.91;4827407;29;20050;-78
2022/03/06 04:49:38;;;;;;;14.60;3.92;;;;;;;-0.19;100.00;102348.06;4825935;29;20041;-78
2022/03/06 04:52:04;;;;;;;20.13;4.40;;;;;;;-0.25;100.00;102346.63;4827545;29;20044;-78
2022/03/06 04:54:29;;;;;;;20.55;4.85;;;;;;;-0.25;100.00;102359.84;4827560;29;20054;-78
2022/03/06 04:56:55;;;;;;;26.60;5.78;;;;;;;-0.29;100.00;102360.97;4827457;29;20036;-78
2022/03/06 04:59:20;;;;;;;19.10;4.25;;;;;;;-0.31;100.00;102360.22;4832048;29;20045;-78
2022/03/06 05:01:45;;;;;;;17.17;4.63;;;;;;;-0.33;100.00;102358.59;4829385;29;20088;-78
2022/03/06 05:04:11;;;;;;;30.25;7.72;;;;;;;-0.26;100.00;102352.03;4828741;29;20038;-79
2022/03/06 05:06:37;;;;;;;29.45;5.68;;;;;;;-0.27;100.00;102356.44;4817686;29;20064;-78
2022/03/06 05:09:02;;;;;;;41.58;9.27;;;;;;;-0.29;100.00;102337.19;4826190;29;20048;-78
2022/03/06 05:11:29;;;;;;;118.35;10.55;;;;;;;0.02;100.00;102353.00;4827497;29;20117;-78
2022/03/06 05:13:55;;;;;;;83.57;10.18;;;;;;;0.19;100.00;102345.75;4826499;29;20045;-78
2022/03/06 05:16:21;;;;;;;64.63;9.85;;;;;;;0.26;100.00;102340.06;4827573;29;20030;-78
2022/03/06 05:18:46;;;;;;;129.63;12.00;;;;;;;0.41;100.00;102365.63;4826981;29;20065;-78
2022/03/06 05:21:11;;;;;;;152.55;12.90;;;;;;;0.48;100.00;102364.28;4825192;29;20053;-78
2022/03/06 05:23:37;;;;;;;78.80;13.45;;;;;;;0.45;100.00;102360.03;4830769;29;20114;-78
2022/03/06 05:26:02;;;;;;;103.70;10.13;;;;;;;0.43;100.00;102361.94;4830724;29;20453;-78
2022/03/06 05:28:28;;;;;;;122.43;10.73;;;;;;;0.47;100.00;102368.72;4823692;29;20034;-78
2022/03/06 05:30:53;;;;;;;86.80;10.85;;;;;;;0.49;100.00;102373.06;4825567;29;20041;-78
2022/03/06 05:33:19;;;;;;;147.27;11.70;;;;;;;0.49;100.00;102375.72;4826013;29;20033;-78
2022/03/06 05:35:45;;;;;;;221.02;15.35;;;;;;;0.48;100.00;102380.16;4827519;29;20034;-79
2022/03/06 05:38:11;;;;;;;184.25;13.73;;;;;;;0.37;100.00;102366.75;4826246;29;20053;-78
2022/03/06 05:40:37;;;;;;;113.45;10.30;;;;;;;0.47;100.00;102374.03;4823778;29;20038;-78
2022/03/06 05:43:02;;;;;;;51.97;9.30;;;;;;;0.52;100.00;102372.88;4824140;29;20103;-78
2022/03/06 05:45:28;;;;;;;97.82;9.52;;;;;;;0.50;100.00;102378.28;4826006;29;20034;-78
2022/03/06 05:47:53;;;;;;;85.40;8.57;;;;;;;0.50;100.00;102369.47;4824900;29;20038;-78
2022/03/06 05:50:18;;;;;;;92.53;9.35;;;;;;;0.45;100.00;102364.47;4826121;29;20037;-78
2022/03/06 05:52:44;;;;;;;97.85;8.35;;;;;;;0.46;100.00;102372.34;4836320;29;20521;-78
2022/03/06 05:55:09;;;;;;;182.77;11.35;;;;;;;0.38;100.00;102379.03;4825640;29;20076;-78
2022/03/06 05:57:35;;;;;;;217.80;13.10;;;;;;;0.36;100.00;102375.63;4816736;29;20097;-78
2022/03/06 06:00:01;;;;;;;178.98;10.02;;;;;;;0.31;100.00;102386.50;4806117;29;20450;-78
2022/03/06 06:02:26;;;;;;;168.07;14.00;;;;;;;0.29;100.00;102384.88;4842348;29;20480;-77
2022/03/06 06:04:52;;;;;;;244.00;13.23;;;;;;;0.29;100.00;102387.53;4827761;29;20022;-77
2022/03/06 06:07:17;;;;;;;185.27;8.23;;;;;;;0.26;100.00;102388.56;4828556;29;20026;-78
2022/03/06 06:09:43;;;;;;;376.30;15.93;;;;;;;0.21;100.00;102393.31;4829508;29;20465;-78
2022/03/06 06:12:09;;;;;;;91.60;8.13;;;;;;;0.17;100.00;102370.63;4831383;29;20038;-78
2022/03/06 06:14:34;;;;;;;129.07;8.23;;;;;;;0.26;100.00;102383.28;4828635;29;20026;-79
2022/03/06 06:17:00;;;;;;;82.55;7.00;;;;;;;0.26;100.00;102391.22;4825743;29;20034;-78
2022/03/06 06:19:25;;;;;;;264.73;9.27;;;;;;;0.16;100.00;102400.66;4822526;29;20109;-78
2022/03/06 06:21:51;;;;;;;329.58;11.75;;;;;;;0.03;100.00;102405.00;4826099;29;20381;-78
2022/03/06 06:24:16;;;;;;;567.67;14.07;;;;;;;0.07;100.00;102406.53;4825195;29;20499;-78
2022/03/06 06:26:43;;;;;;;382.30;11.60;;;;;;;-0.04;100.00;102407.16;4819449;29;20042;-79
2022/03/06 06:29:09;;;;;;;413.00;12.93;;;;;;;-0.05;100.00;102414.22;4796241;29;20034;-78
2022/03/06 06:31:34;;;;;;;323.40;11.25;;;;;;;-0.01;100.00;102415.75;4828276;29;20034;-80
2022/03/06 06:34:00;;;;;;;400.15;17.13;;;;;;;-0.07;100.00;102429.34;4827179;29;20037;-80
2022/03/06 06:36:26;;;;;;;311.67;13.38;;;;;;;-0.10;100.00;102426.91;4808617;29;20038;-79
2022/03/06 06:38:52;;;;;;;238.20;8.80;;;;;;;-0.05;100.00;102427.47;4824248;29;20068;-79
2022/03/06 06:41:17;;;;;;;559.83;17.35;;;;;;;-0.18;100.00;102423.00;4827252;29;20050;-79
2022/03/06 06:43:43;;;;;;;183.02;12.38;;;;;;;-0.34;100.00;102397.41;4835662;29;20090;-79
2022/03/06 06:46:09;;;;;;;234.68;9.80;;;;;;;-0.05;100.00;102438.06;4824426;29;20373;-79
2022/03/06 06:48:35;;;;;;;269.52;10.82;;;;;;;-0.11;100.00;102419.88;4825043;29;20094;-79
2022/03/06 06:51:00;;;;;;;384.00;12.57;;;;;;;0.00;100.00;102435.16;4825868;29;20038;-79
2022/03/06 06:53:26;;;;;;;183.25;8.05;;;;;;;0.05;100.00;102435.72;4825166;29;20377;-78
2022/03/06 06:55:51;;;;;;;444.48;14.75;;;;;;;0.05;100.00;102435.72;4825336;29;20473;-79
2022/03/06 06:58:17;;;;;;;572.33;14.95;;;;;;;0.02;100.00;102429.75;4824953;29;20121;-79
2022/03/06 07:00:42;;;;;;;223.48;7.93;;;;;;;-0.05;100.00;102416.88;4824844;29;20473;-79
2022/03/06 07:03:09;;;;;;;227.68;9.60;;;;;;;0.03;100.00;102432.28;4816114;29;20038;-78
2022/03/06 07:05:35;;;;;;;205.40;6.85;;;;;;;0.04;100.00;102434.03;4824338;29;20038;-79
2022/03/06 07:08:01;;;;;;;227.88;6.47;;;;;;;-0.02;100.00;102435.22;4825612;29;20125;-79
2022/03/06 07:10:26;;;;;;;208.25;6.30;;;;;;;-0.16;100.00;102400.81;4829895;29;20123;-78
2022/03/06 07:12:54;;;;;;;206.05;5.90;;;;;;;-0.03;100.00;102406.22;4820565;29;20049;-79
2022/03/06 07:15:21;;;;;;;111.40;6.38;;;;;;;0.13;100.00;102422.91;4824163;29;20046;-78
2022/03/06 07:17:48;;;;;;;305.90;9.68;;;;;;;0.04;100.00;102438.47;4824696;29;20039;-78
2022/03/06 07:20:14;;;;;;;289.00;9.05;;;;;;;0.22;100.00;102446.16;4826047;29;20026;-78
2022/03/06 07:22:39;;;;;;;173.35;6.38;;;;;;;0.21;100.00;102452.41;4825552;29;20080;-77
2022/03/06 07:25:05;;;;;;;293.35;11.85;;;;;;;0.15;100.00;102463.34;4809220;29;20069;-78
2022/03/06 07:27:31;;;;;;;364.08;13.18;;;;;;;-0.07;100.00;102455.81;4825768;29;20058;-77
2022/03/06 07:29:56;;;;;;;368.23;9.63;;;;;;;-0.02;100.00;102460.84;4828331;29;20039;-78
2022/03/06 07:32:23;;;;;;;352.50;12.23;;;;;;;-0.12;100.00;102464.97;4813449;29;20091;-78
2022/03/06 07:34:48;;;;;;;204.43;11.38;;;;;;;-0.06;100.00;102473.41;4815375;29;20033;-77
2022/03/06 07:37:14;;;;;;;304.35;8.35;;;;;;;-0.15;100.00;102471.28;4821644;29;20369;-76
2022/03/06 07:39:39;;;;;;;149.55;9.10;;;;;;;-0.09;100.00;102488.59;4824287;29;20480;-77
2022/03/06 07:42:05;;;;;;;492.75;12.80;;;;;;;-0.17;100.00;102493.47;4822905;29;20117;-77
2022/03/06 07:44:30;;;;;;;242.57;9.10;;;;;;;-0.19;100.00;102480.34;4824059;29;20034;-77
2022/03/06 07:46:56;;;;;;;201.32;6.15;;;;;;;-0.06;100.00;102494.56;4823796;29;20037;-77
2022/03/06 07:49:21;;;;;;;138.63;6.38;;;;;;;-0.06;100.00;102494.56;4824869;29;20046;-76
2022/03/06 07:51:46;;;;;;;181.38;6.13;;;;;;;0.12;100.00;102491.78;4809170;29;20109;-77
2022/03/06 07:54:14;;;;;;;52.70;3.88;;;;;;;-0.03;100.00;102448.56;4824798;29;20038;-77
2022/03/06 07:56:41;;;;;;;369.00;11.75;;;;;;;0.23;100.00;102507.88;4837640;29;20428;-77
2022/03/06 07:59:06;;;;;;;263.55;6.65;;;;;;;0.18;100.00;102505.53;4812082;29;20058;-76
2022/03/06 08:01:32;;;;;;;92.00;3.70;;;;;;;0.35;100.00;102495.72;4823863;29;20073;-77
2022/03/06 08:03:58;;;;;;;190.73;5.80;;;;;;;0.45;100.00;102496.88;4825001;29;20031;-77
2022/03/06 08:06:23;;;;;;;43.17;3.88;;;;;;;0.54;100.00;102506.94;4824480;29;20034;-77
2022/03/06 08:08:49;;;;;;;109.82;7.60;;;;;;;0.38;100.00;102509.63;4820336;29;20361;-77
2022/03/06 08:11:14;;;;;;;96.40;4.63;;;;;;;0.28;100.00;102511.13;4824625;29;20121;-77
2022/03/06 08:13:39;;;;;;;63.92;3.50;;;;;;;0.28;100.00;102515.56;4824608;29;20038;-77
2022/03/06 08:16:05;;;;;;;113.00;3.47;;;;;;;0.25;100.00;102510.47;4824476;29;20045;-77
2022/03/06 08:18:30;;;;;;;65.55;3.40;;;;;;;0.33;100.00;102492.31;4824300;29;20337;-77
2022/03/06 08:20:56;;;;;;;75.90;3.75;;;;;;;0.49;100.00;102508.16;4822276;29;20034;-77
2022/03/06 08:23:21;;;;;;;44.10;3.53;;;;;;;0.67;100.00;102502.59;4818790;29;20061;-77
2022/03/06 08:25:46;;;;;;;28.67;3.00;;;;;;;0.94;100.00;102492.09;4817966;29;20365;-78
2022/03/06 08:28:12;;;;;;;28.95;3.55;;;;;;;1.14;100.00;102495.31;4822905;29;20037;-78
2022/03/06 08:30:37;;;;;;;49.33;3.88;;;;;;;1.25;100.00;102492.81;4820201;29;20030;-78
2022/03/06 08:33:04;;;;;;;17.35;3.45;;;;;;;1.42;100.00;102486.44;4821948;29;20359;-77
2022/03/06 08:35:30;;;;;;;50.22;4.18;;;;;;;1.25;100.00;102487.53;4824341;29;20030;-78
2022/03/06 08:37:57;;;;;;;7.70;3.63;;;;;;;1.51;100.00;102482.38;4826841;29;20570;-78
2022/03/06 08:40:23;;;;;;;7.38;4.38;;;;;;;1.65;100.00;102482.31;4825765;29;20042;-77
2022/03/06 08:42:49;;;;;;;8.88;3.30;;;;;;;1.27;100.00;102471.53;4826556;29;20041;-78
2022/03/06 08:45:14;;;;;;;6.13;3.20;;;;;;;1.25;100.00;102491.97;4831313;29;20039;-77
2022/03/06 08:47:41;;;;;;;5.45;3.20;;;;;;;1.46;100.00;102498.59;4826189;29;20043;-78
2022/03/06 08:50:07;;;;;;;5.18;3.65;;;;;;;1.59;100.00;102490.66;4829833;29;20034;-76
2022/03/06 08:52:33;;;;;;;6.00;3.30;;;;;;;1.69;100.00;102493.56;4833794;29;20114;-78
2022/03/06 08:54:58;;;;;;;5.13;3.70;;;;;;;1.36;100.00;102469.16;4826449;29;20441;-77
2022/03/06 08:57:24;;;;;;;8.07;4.07;;;;;;;1.59;100.00;102490.66;4825798;29;20049;-77
2022/03/06 08:59:50;;;;;;;6.50;3.97;;;;;;;1.48;100.00;102482.56;4826313;29;20126;-77
2022/03/06 09:02:16;;;;;;;7.38;4.22;;;;;;;1.70;100.00;102503.25;4827529;29;20058;-78
2022/03/06 09:04:41;;;;;;;6.63;4.10;;;;;;;1.82;100.00;102505.97;4826436;29;20126;-77
2022/03/06 09:07:06;;;;;;;5.50;3.83;;;;;;;1.96;100.00;102506.88;4826316;29;20071;-77
2022/03/06 09:09:33;;;;;;;5.65;4.45;;;;;;;2.03;100.00;102506.34;4826727;29;20046;-77
2022/03/06 09:12:00;;;;;;;6.90;3.60;;;;;;;2.16;100.00;102511.69;4826655;29;20058;-77
2022/03/06 09:14:26;;;;;;;7.50;3.97;;;;;;;2.26;100.00;102506.63;4826651;29;20351;-77
2022/03/06 09:16:51;;;;;;;6.38;3.60;;;;;;;1.83;100.00;102437.81;4826719;29;20045;-77
2022/03/06 09:19:17;;;;;;;5.65;3.53;;;;;;;2.18;100.00;102495.66;4826901;29;20034;-77
2022/03/06 09:21:43;;;;;;;6.30;3.50;;;;;;;2.20;100.00;102499.91;4827247;29;20072;-77
2022/03/06 09:24:10;;;;;;;5.47;3.50;;;;;;;2.30;100.00;102506.31;4813735;29;20065;-77
2022/03/06 09:26:36;;;;;;;5.05;3.05;;;;;;;2.22;100.00;102491.81;4828129;29;20065;-77
2022/03/06 09:29:04;;;;;;;5.80;3.25;;;;;;;2.30;100.00;102510.78;4845187;29;20051;-77
2022/03/06 09:31:29;;;;;;;5.25;3.03;;;;;;;2.41;100.00;102518.00;4842681;29;20342;-77
2022/03/06 09:33:55;;;;;;;5.10;3.00;;;;;;;2.45;100.00;102516.84;4827093;29;20045;-77
2022/03/06 09:36:20;;;;;;;4.00;2.53;;;;;;;2.52;100.00;102516.34;4827155;29;20038;-77
2022/03/06 09:38:46;;;;;;;5.63;2.83;;;;;;;2.59;100.00;102517.63;4825940;29;20038;-77
2022/03/06 09:41:16;;;;;;;3.92;2.30;;;;;;;2.62;100.00;102511.25;4825332;29;20085;-77
2022/03/06 09:43:42;;;;;;;5.05;2.25;;;;;;;2.56;100.00;102495.72;4824388;29;20058;-77
2022/03/06 09:46:08;;;;;;;5.85;2.08;;;;;;;2.58;100.00;102509.72;4824759;29;20045;-77
2022/03/06 09:48:34;;;;;;;3.25;1.83;;;;;;;2.62;100.00;102510.41;4825267;29;20034;-77
2022/03/06 09:51:02;;;;;;;3.85;1.88;;;;;;;2.70;100.00;102508.91;4824189;29;20045;-77
2022/03/06 09:53:28;;;;;;;3.67;1.80;;;;;;;2.79;100.00;102510.06;4824938;29;20102;-77
2022/03/06 09:55:53;;;;;;;4.90;2.00;;;;;;;2.75;100.00;102511.25;4825697;29;20105;-77
2022/03/06 09:58:19;;;;;;;2.97;2.05;;;;;;;2.84;100.00;102518.56;4826144;29;20041;-77
2022/03/06 10:00:44;;;;;;;4.43;1.90;;;;;;;2.86;100.00;102514.00;4826574;29;20110;-77
2022/03/06 10:03:17;;;;;;;5.22;1.88;;;;;;;2.92;100.00;102518.06;4828239;29;20038;-77
2022/03/06 10:05:42;;;;;;;2.75;1.73;;;;;;;2.92;100.00;102505.59;4828617;29;20022;-78
2022/03/06 10:08:18;;;;;;;4.40;1.73;;;;;;;2.95;100.00;102518.69;4827649;29;20418;-78
2022/03/06 10:10:46;;;;;;;2.85;1.65;;;;;;;2.96;100.00;102517.72;4828887;29;20026;-78
2022/03/06 10:13:33;;;;;;;3.25;1.65;;;;;;;2.96;100.00;102519.53;4826851;29;20087;-77
2022/03/06 10:16:06;;;;;;;4.13;1.50;;;;;;;2.94;100.00;102514.31;4826460;29;20054;-77
2022/03/06 10:18:45;;;;;;;3.45;1.45;;;;;;;3.04;100.00;102506.53;4824608;29;20457;-77
2022/03/06 10:21:15;;;;;;;4.10;1.42;;;;;;;3.14;100.00;102506.75;4826377;29;20457;-78
2022/03/06 10:23:41;;;;;;;3.60;0.95;;;;;;;3.19;100.00;102507.28;4824990;29;20553;-77
2022/03/06 10:26:09;;;;;;;3.38;1.00;;;;;;;3.27;100.00;102504.91;4825260;29;20113;-77
2022/03/06 10:28:44;;;;;;;1.90;0.80;;;;;;;3.41;100.00;102510.09;4825455;29;20026;-77
2022/03/06 10:31:10;;;;;;;1.80;0.80;;;;;;;3.40;100.00;102508.38;4825447;29;20045;-77
2022/03/06 10:33:35;;;;;;;2.95;1.00;;;;;;;3.52;100.00;102507.50;4824445;29;20453;-77
2022/03/06 10:36:02;;;;;;;4.20;1.00;;;;;;;3.43;100.00;102486.03;4826210;29;20042;-78
2022/03/06 10:38:33;;;;;;;3.03;0.90;;;;;;;3.62;100.00;102515.69;4824590;29;20102;-78
2022/03/06 10:40:59;;;;;;;1.27;0.70;;;;;;;3.76;100.00;102506.69;4825754;29;20416;-77
2022/03/06 10:43:30;;;;;;;2.67;0.90;;;;;;;3.84;100.00;102514.09;4830193;29;20030;-78
2022/03/06 10:46:15;;;;;;;1.73;0.82;;;;;;;3.96;100.00;102503.38;4827582;29;20034;-77
2022/03/06 10:49:02;;;;;;;2.33;0.70;;;;;;;4.10;100.00;102506.84;4824163;29;20106;-78
2022/03/06 10:51:28;;;;;;;1.15;0.80;;;;;;;4.19;100.00;102504.31;4825110;29;20034;-78
2022/03/06 10:53:57;;;;;;;2.20;0.70;;;;;;;4.32;100.00;102508.75;4825442;29;20086;-78
2022/03/06 10:56:23;;;;;;;3.78;0.70;;;;;;;4.39;100.00;102507.28;4825022;29;20113;-77
2022/03/06 10:58:48;;;;;;;0.98;0.40;;;;;;;4.49;100.00;102516.28;4824701;29;20190;-78
2022/03/06 11:01:15;;;;;;;2.42;0.70;;;;;;;4.54;100.00;102507.97;4824015;29;20104;-78
2022/03/06 11:03:42;;;;;;;2.63;0.70;;;;;;;4.41;100.00;102510.72;4824561;29;20031;-78
2022/03/06 11:06:09;;;;;;;2.58;0.70;;;;;;;4.33;100.00;102510.44;4824088;29;20503;-78
2022/03/06 11:08:36;;;;;;;1.95;0.70;;;;;;;4.32;100.00;102511.41;4824858;29;20033;-78
2022/03/06 11:11:07;;;;;;;1.17;0.63;;;;;;;4.32;100.00;102503.41;4822224;29;20045;-78